Time;durP1;ratioP1;P1;durP2;ratioP2;P2;SDS_P1;SDS_P2;PMS_P1;PMS_P2;Temp;Humidity;BMP_temperature;BMP_pressure;BME280_temperature;BME280_humidity;BME280_pressure;Samples;Min_cycle;Max_cycle;Signal;HPM_P1;HPM_P2
2023/02/13 00:00:38;;;;;;;31.73;17.03;;;8.00;99.90;;;;;;5096519;28;20454;-81
2023/02/13 00:03:05;;;;;;;29.67;15.53;;;7.70;99.90;;;;;;5096251;28;20474;-81
2023/02/13 00:05:32;;;;;;;29.10;16.50;;;;;;;;;;5098308;28;20418;-81
2023/02/13 00:07:59;;;;;;;25.20;13.87;;;7.80;99.90;;;;;;5096822;28;20534;-81
2023/02/13 00:10:26;;;;;;;28.53;15.73;;;;;;;;;;5097465;28;20540;-81
2023/02/13 00:12:53;;;;;;;28.27;14.10;;;7.50;99.90;;;;;;5096912;28;20443;-81
2023/02/13 00:15:20;;;;;;;27.70;14.90;;;7.70;99.90;;;;;;5103375;28;20418;-79
2023/02/13 00:17:48;;;;;;;23.43;12.93;;;7.70;99.90;;;;;;5097826;28;20424;-81
2023/02/13 00:20:15;;;;;;;18.23;10.33;;;7.30;99.90;;;;;;5095743;28;20859;-81
2023/02/13 00:22:42;;;;;;;22.83;10.40;;;8.00;99.90;;;;;;5096023;28;20442;-81
2023/02/13 00:25:09;;;;;;;18.70;10.30;;;7.70;99.90;;;;;;5094750;28;20539;-81
2023/02/13 00:27:36;;;;;;;20.30;10.40;;;7.50;99.90;;;;;;5096232;28;20944;-81
2023/02/13 00:30:04;;;;;;;19.80;10.50;;;7.90;99.90;;;;;;5094973;28;20501;-80
2023/02/13 00:32:31;;;;;;;15.87;10.23;;;7.70;99.90;;;;;;5095062;28;20512;-80
2023/02/13 00:34:59;;;;;;;16.87;10.10;;;7.60;99.90;;;;;;5099113;28;20443;-81
2023/02/13 00:37:26;;;;;;;16.17;9.47;;;7.90;99.90;;;;;;5099675;28;20428;-80
2023/02/13 00:39:53;;;;;;;17.57;9.33;;;7.80;99.90;;;;;;5100249;28;20479;-81
2023/02/13 00:42:22;;;;;;;14.40;9.03;;;7.80;99.90;;;;;;5101710;28;20442;-81
2023/02/13 00:44:49;;;;;;;16.60;9.40;;;8.00;99.90;;;;;;5100662;28;20448;-81
2023/02/13 00:47:16;;;;;;;13.10;8.68;;;7.50;99.90;;;;;;5100003;28;20799;-80
2023/02/13 00:49:43;;;;;;;14.60;8.50;;;7.50;99.90;;;;;;5100795;28;20575;-81
2023/02/13 00:52:11;;;;;;;11.57;6.27;;;7.90;99.90;;;;;;5099340;28;20502;-81
2023/02/13 00:54:38;;;;;;;11.23;6.47;;;;;;;;;;5106701;28;20414;-80
2023/02/13 00:57:06;;;;;;;7.70;6.10;;;7.60;97.00;;;;;;5119680;28;20460;-80
2023/02/13 00:59:33;;;;;;;10.17;6.50;;;7.70;99.90;;;;;;5118655;28;20544;-80
2023/02/13 01:01:59;;;;;;;7.47;5.20;;;7.70;99.90;;;;;;5104313;28;20439;-81
2023/02/13 01:04:26;;;;;;;10.20;4.70;;;7.30;99.90;;;;;;5101474;28;20827;-81
2023/02/13 01:06:53;;;;;;;6.70;4.10;;;7.70;99.90;;;;;;5101293;28;20455;-82
2023/02/13 01:09:21;;;;;;;4.13;3.05;;;7.90;99.90;;;;;;5111848;28;20466;-81
2023/02/13 01:11:48;;;;;;;4.63;3.00;;;7.50;43.10;;;;;;5116648;28;20285;-80
2023/02/13 01:14:15;;;;;;;4.35;3.08;;;8.00;10.60;;;;;;5118792;28;20459;-80
2023/02/13 01:16:42;;;;;;;7.43;3.50;;;7.70;1.00;;;;;;5116852;28;20208;-80
2023/02/13 01:19:08;;;;;;;4.53;2.77;;;7.40;1.00;;;;;;5117451;28;20472;-80
2023/02/13 01:21:35;;;;;;;4.70;2.80;;;7.80;1.00;;;;;;5116363;28;20443;-80
2023/02/13 01:24:04;;;;;;;4.67;3.00;;;7.70;1.00;;;;;;5116949;28;20465;-80
2023/02/13 01:26:32;;;;;;;7.68;3.20;;;7.60;1.00;;;;;;5118034;28;20432;-80
2023/02/13 01:28:59;;;;;;;4.37;3.27;;;7.70;1.00;;;;;;5117664;28;20204;-80
2023/02/13 01:31:27;;;;;;;12.33;3.37;;;7.50;1.00;;;;;;5116120;28;20438;-80
2023/02/13 01:33:56;;;;;;;4.70;2.70;;;7.60;1.00;;;;;;5115833;28;20615;-80
2023/02/13 01:36:24;;;;;;;2.60;2.40;;;;;;;;;;5115005;28;20418;-79
2023/02/13 01:38:54;;;;;;;4.10;2.65;;;7.90;1.00;;;;;;5116683;28;20532;-81
2023/02/13 01:41:21;;;;;;;4.40;3.70;;;7.50;1.00;;;;;;5118078;28;20229;-80
2023/02/13 01:43:52;;;;;;;4.97;2.70;;;7.60;1.00;;;;;;5117805;28;20449;-80
2023/02/13 01:46:25;;;;;;;4.78;2.95;;;8.10;1.00;;;;;;5117781;28;20455;-80
2023/02/13 01:48:56;;;;;;;7.17;2.83;;;7.40;1.00;;;;;;5117459;28;20166;-81
2023/02/13 01:51:25;;;;;;;4.53;2.90;;;7.20;1.00;;;;;;5116575;28;20513;-81
2023/02/13 01:53:58;;;;;;;4.40;3.05;;;7.60;1.00;;;;;;5106817;28;20425;-82
2023/02/13 01:56:29;;;;;;;4.67;2.80;;;7.70;1.00;;;;;;5107587;28;20191;-80
2023/02/13 01:59:00;;;;;;;4.90;3.20;;;7.40;1.00;;;;;;5106099;28;20468;-82
2023/02/13 02:01:28;;;;;;;3.20;2.87;;;7.20;1.00;;;;;;5100512;28;20514;-81
2023/02/13 02:03:58;;;;;;;4.38;2.70;;;7.50;1.00;;;;;;5105702;28;20452;-81
2023/02/13 02:06:28;;;;;;;3.90;3.47;;;7.60;1.00;;;;;;5100722;28;20695;-81
2023/02/13 02:08:59;;;;;;;8.57;4.07;;;7.20;1.00;;;;;;5101342;28;20941;-79
2023/02/13 02:11:32;;;;;;;3.43;3.07;;;7.20;1.00;;;;;;5098588;28;20521;-81
2023/02/13 02:14:01;;;;;;;4.70;3.50;;;7.50;1.00;;;;;;5101022;28;20496;-81
2023/02/13 02:16:29;;;;;;;4.63;3.30;;;7.60;1.00;;;;;;5105178;28;20547;-81
2023/02/13 02:18:56;;;;;;;5.60;3.30;;;8.00;1.00;;;;;;5103280;28;20479;-81
2023/02/13 02:22:15;;;;;;;4.00;3.60;;;7.60;1.00;;;;;;5104973;28;20430;-80
2023/02/13 02:25:21;;;;;;;6.10;5.27;;;7.30;1.00;;;;;;5022918;28;20519;-81
2023/02/13 02:28:15;;;;;;;7.27;5.27;;;8.00;1.00;;;;;;5015349;28;20437;-80
2023/02/13 02:31:25;;;;;;;11.70;5.97;;;7.80;1.00;;;;;;5094114;28;20447;-80
2023/02/13 02:34:08;;;;;;;7.70;5.30;;;8.00;1.00;;;;;;5107339;28;20405;-81
2023/02/13 02:36:50;;;;;;;7.03;4.40;;;7.80;1.00;;;;;;5106698;28;20481;-80
2023/02/13 02:39:26;;;;;;;4.67;4.17;;;7.60;1.00;;;;;;5103703;28;20836;-80
2023/02/13 02:42:01;;;;;;;4.40;4.00;;;7.30;1.00;;;;;;5100415;28;20829;-80
2023/02/13 02:44:35;;;;;;;6.03;4.75;;;7.80;1.00;;;;;;5100576;28;20414;-81
2023/02/13 02:50:11;;;;;;;7.83;4.87;;;7.70;1.00;;;;;;5098117;28;20944;-81
2023/02/13 02:52:55;;;;;;;7.27;4.60;;;;;;;;;;5160939;22;20568;-86
2023/02/13 02:55:29;;;;;;;7.17;5.70;;;;;;;;;;5084384;28;20437;-85
2023/02/13 03:06:32;;;;;;;7.30;5.63;;;7.40;1.00;;;;;;5082634;28;20527;-85
2023/02/13 03:14:36;;;;;;;5.50;4.33;;;;;;;;;;5084548;28;20432;-86
2023/02/13 03:22:59;;;;;;;6.00;5.40;;;7.30;1.00;;;;;;5084040;28;20468;-85
2023/02/13 03:25:34;;;;;;;7.90;5.38;;;7.20;1.00;;;;;;5082790;28;20407;-87
2023/02/13 03:31:03;;;;;;;12.50;6.70;;;7.30;1.00;;;;;;5083759;28;20181;-85
2023/02/13 03:33:49;;;;;;;9.53;6.37;;;7.30;1.00;;;;;;5095375;28;20929;-86
2023/02/13 03:39:12;;;;;;;10.20;6.70;;;7.50;79.60;;;;;;5096411;28;20411;-85
2023/02/13 03:41:42;;;;;;;13.83;8.23;;;7.20;1.00;;;;;;5080785;28;20950;-85
2023/02/13 03:44:16;;;;;;;13.67;6.77;;;7.20;77.80;;;;;;5081738;28;20441;-85
2023/02/13 03:46:47;;;;;;;11.40;7.10;;;7.20;8.40;;;;;;5080214;28;20499;-86
2023/02/13 03:52:13;;;;;;;12.40;8.33;;;6.90;77.20;;;;;;5060771;28;20280;-87
2023/02/13 04:00:20;;;;;;;10.25;6.75;;;7.20;1.00;;;;;;5079920;28;20225;-85
2023/02/13 04:02:57;;;;;;;14.47;7.40;;;7.30;1.30;;;;;;5082411;28;20254;-87
2023/02/13 04:05:29;;;;;;;12.70;7.50;;;7.20;1.00;;;;;;5080946;28;20420;-87
2023/02/13 04:07:56;;;;;;;15.57;7.78;;;;;;;;;;5082214;28;20492;-87
2023/02/13 04:10:28;;;;;;;13.27;7.70;;;7.20;25.70;;;;;;5085868;28;20222;-87
2023/02/13 04:13:05;;;;;;;13.73;7.40;;;7.10;44.30;;;;;;5086942;28;20480;-86
2023/02/13 04:15:36;;;;;;;9.93;7.10;;;7.40;25.50;;;;;;5086197;28;20437;-86
2023/02/13 04:18:08;;;;;;;14.20;8.10;;;7.20;1.00;;;;;;5086238;28;20473;-86
2023/02/13 04:20:35;;;;;;;11.43;7.63;;;;;;;;;;5087250;28;20214;-86
2023/02/13 04:23:08;;;;;;;12.43;8.73;;;7.30;1.00;;;;;;5081430;28;20484;-87
2023/02/13 04:25:39;;;;;;;13.50;8.67;;;7.00;1.00;;;;;;5082675;28;20793;-86
2023/02/13 04:28:06;;;;;;;12.25;6.80;;;7.40;31.90;;;;;;5100260;28;20443;-85
2023/02/13 04:30:33;;;;;;;11.05;7.53;;;7.10;1.00;;;;;;5100950;28;20198;-87
2023/02/13 04:33:00;;;;;;;14.23;8.20;;;6.80;32.80;;;;;;5089262;28;20233;-87
2023/02/13 04:35:27;;;;;;;19.42;9.20;;;7.40;41.70;;;;;;5086577;28;20474;-87
2023/02/13 04:37:53;;;;;;;14.20;9.10;;;7.10;22.90;;;;;;5100946;28;20206;-87
2023/02/13 04:40:20;;;;;;;15.23;9.55;;;7.10;1.00;;;;;;5100556;28;20503;-86
2023/02/13 04:42:49;;;;;;;13.90;8.73;;;6.80;25.90;;;;;;5101098;28;20226;-86
2023/02/13 04:45:16;;;;;;;13.10;8.30;;;6.60;40.70;;;;;;5088775;28;20484;-85
2023/02/13 04:47:43;;;;;;;14.35;9.32;;;7.40;1.00;;;;;;5086994;28;20262;-86
2023/02/13 04:50:10;;;;;;;13.37;8.87;;;7.10;1.00;;;;;;5085132;28;20266;-86
2023/02/13 04:52:37;;;;;;;16.13;9.50;;;7.20;64.00;;;;;;5085855;28;20840;-86
2023/02/13 04:55:05;;;;;;;15.90;10.20;;;7.20;1.00;;;;;;5084064;28;20441;-86
2023/02/13 04:57:31;;;;;;;16.90;9.33;;;7.10;8.10;;;;;;5084014;28;20510;-87
2023/02/13 05:00:00;;;;;;;16.17;10.07;;;6.80;1.00;;;;;;5084432;28;20455;-86
2023/02/13 05:02:26;;;;;;;15.60;9.70;;;7.20;28.20;;;;;;5082570;28;20290;-86
2023/02/13 05:04:53;;;;;;;14.60;8.87;;;7.30;1.00;;;;;;5082862;28;20455;-85
2023/02/13 05:07:20;;;;;;;18.20;10.40;;;7.30;27.90;;;;;;5081337;28;20425;-86
2023/02/13 05:09:47;;;;;;;12.80;8.80;;;7.40;41.60;;;;;;5081548;28;20234;-86
2023/02/13 05:12:14;;;;;;;11.40;7.57;;;6.80;3.90;;;;;;5082568;28;20465;-87
2023/02/13 05:14:40;;;;;;;14.32;8.27;;;7.50;1.00;;;;;;5081256;28;20205;-87
2023/02/13 05:17:09;;;;;;;14.10;8.27;;;7.40;1.00;;;;;;5081871;28;20222;-86
2023/02/13 05:19:36;;;;;;;11.82;7.53;;;7.10;1.00;;;;;;5082784;28;20224;-86
2023/02/13 05:24:48;;;;;;;10.88;6.38;;;6.80;1.00;;;;;;5080724;28;20426;-85
2023/02/13 05:27:14;;;;;;;11.23;6.60;;;6.90;1.00;;;;;;5083277;28;20199;-86
2023/02/13 05:29:41;;;;;;;11.30;6.47;;;;;;;;;;5081068;28;20440;-87
2023/02/13 05:32:10;;;;;;;10.73;7.30;;;6.90;1.00;;;;;;5081006;28;20447;-87
2023/02/13 05:34:37;;;;;;;12.40;7.63;;;6.90;1.00;;;;;;5081890;28;20419;-86
2023/02/13 05:37:04;;;;;;;9.47;7.10;;;;;;;;;;5081316;28;20209;-87
2023/02/13 05:39:30;;;;;;;8.73;6.30;;;7.50;1.00;;;;;;5081240;28;20781;-86
2023/02/13 05:41:57;;;;;;;11.30;6.43;;;7.10;1.00;;;;;;5084907;28;20524;-85
2023/02/13 05:44:24;;;;;;;11.20;7.50;;;6.90;1.00;;;;;;5097235;28;20437;-88
2023/02/13 05:46:52;;;;;;;9.60;6.23;;;6.80;1.00;;;;;;5082127;28;20424;-87
2023/02/13 05:49:21;;;;;;;11.70;8.20;;;7.40;1.00;;;;;;5082310;28;20838;-86
2023/02/13 05:51:50;;;;;;;11.13;6.77;;;6.60;1.00;;;;;;5081159;28;20484;-86
2023/02/13 05:54:18;;;;;;;11.87;8.37;;;7.40;1.00;;;;;;5080626;28;20432;-87
2023/02/13 05:56:45;;;;;;;9.38;6.95;;;6.80;1.00;;;;;;5080911;28;20532;-86
2023/02/13 05:59:12;;;;;;;12.90;7.77;;;7.20;1.00;;;;;;5080785;28;20202;-86
2023/02/13 06:01:39;;;;;;;7.45;6.45;;;;;;;;;;5079951;28;20480;-86
2023/02/13 06:04:06;;;;;;;14.25;6.20;;;7.20;1.00;;;;;;5080269;28;20262;-86
2023/02/13 06:06:34;;;;;;;9.68;6.95;;;7.10;99.90;;;;;;5081465;28;20701;-86
2023/02/13 06:09:01;;;;;;;14.47;9.17;;;7.20;1.00;;;;;;5091323;28;20187;-86
2023/02/13 06:11:28;;;;;;;9.75;6.80;;;7.40;1.00;;;;;;5095986;28;20465;-85
2023/02/13 06:13:55;;;;;;;9.03;6.80;;;6.90;1.00;;;;;;5092577;28;20206;-84
2023/02/13 06:16:22;;;;;;;9.10;6.33;;;6.80;1.00;;;;;;5086604;28;20939;-85
2023/02/13 06:18:49;;;;;;;10.93;5.90;;;;;;;;;;5099059;28;20399;-85
2023/02/13 06:21:16;;;;;;;7.27;6.23;;;;;;;;;;5099158;28;20464;-85
2023/02/13 06:23:44;;;;;;;9.23;6.33;;;7.00;1.00;;;;;;5098827;28;20459;-86
2023/02/13 06:26:11;;;;;;;9.83;7.37;;;6.80;1.00;;;;;;5084651;28;20441;-86
2023/02/13 06:28:38;;;;;;;7.83;6.67;;;;;;;;;;5080207;28;20565;-85
2023/02/13 06:31:06;;;;;;;10.07;7.00;;;;;;;;;;5078406;28;20465;-86
2023/02/13 06:33:32;;;;;;;9.32;6.32;;;6.90;99.90;;;;;;5079319;28;20526;-87
2023/02/13 06:35:59;;;;;;;9.45;7.95;;;7.50;99.90;;;;;;5079255;28;20287;-86
2023/02/13 06:38:26;;;;;;;9.83;6.03;;;7.40;99.90;;;;;;5079463;28;20652;-86
2023/02/13 06:40:59;;;;;;;11.07;7.00;;;7.20;99.90;;;;;;5080240;28;20480;-86
2023/02/13 06:43:26;;;;;;;7.53;6.23;;;7.50;99.90;;;;;;5080886;28;20469;-86
2023/02/13 06:45:53;;;;;;;9.32;6.60;;;;;;;;;;5079597;28;20889;-86
2023/02/13 06:48:20;;;;;;;8.57;5.80;;;7.00;99.90;;;;;;5079331;28;20206;-87
2023/02/13 06:50:47;;;;;;;7.90;7.10;;;7.50;99.90;;;;;;5079908;28;20434;-87
2023/02/13 06:53:14;;;;;;;8.50;6.27;;;7.40;99.90;;;;;;5079699;28;20547;-85
2023/02/13 06:55:41;;;;;;;8.63;6.27;;;6.90;99.90;;;;;;5080212;28;20860;-86
2023/02/13 06:58:09;;;;;;;11.83;7.80;;;7.00;99.90;;;;;;5079866;28;20439;-86
2023/02/13 07:00:36;;;;;;;12.10;7.40;;;;;;;;;;5079530;28;20480;-86
2023/02/13 07:03:04;;;;;;;7.93;5.90;;;7.20;99.90;;;;;;5080002;28;20526;-86
2023/02/13 07:05:31;;;;;;;7.73;6.00;;;7.40;99.90;;;;;;5079924;28;20473;-86
2023/02/13 07:07:58;;;;;;;7.87;5.93;;;7.10;99.90;;;;;;5079228;28;20472;-85
2023/02/13 07:10:25;;;;;;;11.10;6.60;;;7.00;99.90;;;;;;5079421;28;20415;-86
2023/02/13 07:12:53;;;;;;;6.90;6.07;;;;;;;;;;5080325;28;20467;-85
2023/02/13 07:15:21;;;;;;;7.57;6.03;;;7.10;99.90;;;;;;5080095;28;20810;-87
2023/02/13 07:17:48;;;;;;;9.80;6.50;;;7.20;99.90;;;;;;5085535;28;20455;-86
2023/02/13 07:20:15;;;;;;;13.70;7.80;;;;;;;;;;5095000;28;20455;-86
2023/02/13 07:22:42;;;;;;;9.33;6.20;;;7.10;99.90;;;;;;5097405;28;20473;-86
2023/02/13 07:25:09;;;;;;;9.07;6.63;;;7.50;99.90;;;;;;5086267;28;20451;-87
2023/02/13 07:27:36;;;;;;;11.15;6.50;;;;;;;;;;5079207;28;20528;-85
2023/02/13 07:30:03;;;;;;;7.37;5.83;;;7.10;99.90;;;;;;5079095;28;20275;-87
2023/02/13 07:32:31;;;;;;;8.95;6.47;;;7.50;99.90;;;;;;5078833;28;20469;-86
2023/02/13 07:34:58;;;;;;;10.73;6.80;;;7.50;99.90;;;;;;5080271;28;20229;-85
2023/02/13 07:37:27;;;;;;;10.73;7.03;;;7.50;99.90;;;;;;5093769;28;20464;-85
2023/02/13 07:39:53;;;;;;;8.87;6.83;;;7.60;99.90;;;;;;5090075;28;20431;-86
2023/02/13 07:42:21;;;;;;;13.75;7.28;;;;;;;;;;5098521;28;20530;-87
2023/02/13 07:44:47;;;;;;;10.17;7.70;;;6.80;99.90;;;;;;5104070;28;20203;-86
2023/02/13 07:47:14;;;;;;;9.20;7.20;;;7.70;99.90;;;;;;5098244;28;20412;-85
2023/02/13 07:49:45;;;;;;;8.93;6.43;;;7.60;99.90;;;;;;5098252;28;20471;-87
2023/02/13 07:52:15;;;;;;;10.27;6.60;;;7.40;99.90;;;;;;5101112;28;20483;-86
2023/02/13 07:54:46;;;;;;;7.50;5.90;;;;;;;;;;5097533;28;20406;-86
2023/02/13 07:57:16;;;;;;;9.53;6.80;;;7.40;99.90;;;;;;5088963;28;20406;-87
2023/02/13 07:59:43;;;;;;;13.67;7.13;;;;;;;;;;5085819;28;20438;-86
2023/02/13 08:02:13;;;;;;;11.43;7.30;;;7.40;99.90;;;;;;5086493;28;20582;-85
2023/02/13 08:04:40;;;;;;;10.63;7.73;;;7.90;99.90;;;;;;5088374;28;20539;-85
2023/02/13 08:07:08;;;;;;;11.20;7.47;;;7.60;99.90;;;;;;5088802;28;20506;-86
2023/02/13 08:12:20;;;;;;;11.70;7.87;;;7.80;99.90;;;;;;5087946;28;20459;-86
2023/02/13 08:14:47;;;;;;;13.53;8.60;;;7.90;99.90;;;;;;5087762;28;20544;-87
2023/02/13 08:17:13;;;;;;;11.93;8.50;;;7.80;99.90;;;;;;5087617;28;20449;-86
2023/02/13 08:19:41;;;;;;;10.43;7.90;;;7.70;99.90;;;;;;5087762;28;20456;-87
2023/02/13 08:22:09;;;;;;;9.90;7.43;;;7.50;99.90;;;;;;5086733;28;20553;-86
2023/02/13 08:24:36;;;;;;;8.33;6.80;;;7.80;99.90;;;;;;5086457;28;20982;-86
2023/02/13 08:27:03;;;;;;;14.17;7.97;;;;;;;;;;5088234;28;20447;-85
2023/02/13 08:29:30;;;;;;;9.97;7.30;;;;;;;;;;5087917;28;20456;-87
2023/02/13 08:31:57;;;;;;;7.50;5.97;;;7.70;99.90;;;;;;5086504;28;20983;-85
2023/02/13 08:34:24;;;;;;;9.07;6.77;;;7.60;99.90;;;;;;5086150;28;20873;-86
2023/02/13 08:36:51;;;;;;;9.60;7.07;;;;;;;;;;5086742;28;20506;-85
2023/02/13 08:39:22;;;;;;;8.77;6.90;;;7.70;99.90;;;;;;5099066;28;20475;-86
2023/02/13 08:41:49;;;;;;;10.30;7.50;;;7.70;99.90;;;;;;5103531;28;20468;-84
2023/02/13 08:44:15;;;;;;;11.73;7.57;;;7.30;99.90;;;;;;5100402;28;20471;-87
2023/02/13 08:46:42;;;;;;;10.77;6.80;;;7.50;99.90;;;;;;5086672;28;20423;-87
2023/02/13 08:49:09;;;;;;;10.13;6.50;;;8.00;99.90;;;;;;5086035;28;20444;-86
2023/02/13 08:51:38;;;;;;;11.70;6.17;;;7.50;99.90;;;;;;5088336;28;20450;-85
2023/02/13 08:54:05;;;;;;;11.40;6.37;;;8.00;99.90;;;;;;5118111;22;20506;-82
2023/02/13 08:56:33;;;;;;;8.77;7.03;;;7.50;99.90;;;;;;5104918;28;20526;-80
2023/02/13 08:59:01;;;;;;;13.60;8.00;;;;;;;;;;5103166;28;20550;-81
2023/02/13 09:01:27;;;;;;;12.17;7.10;;;7.70;99.90;;;;;;5101456;28;21044;-82
2023/02/13 09:03:55;;;;;;;10.90;6.83;;;7.90;99.90;;;;;;5100792;28;20887;-82
2023/02/13 09:06:25;;;;;;;12.27;8.23;;;7.30;99.90;;;;;;5100971;28;20418;-81
2023/02/13 09:08:52;;;;;;;7.97;6.67;;;;;;;;;;5100617;28;20534;-81
2023/02/13 09:11:22;;;;;;;7.50;5.80;;;7.90;99.90;;;;;;5100044;28;20422;-81
2023/02/13 09:13:52;;;;;;;9.00;7.13;;;7.50;99.90;;;;;;5099723;28;20513;-81
2023/02/13 09:16:19;;;;;;;8.13;5.87;;;7.70;99.90;;;;;;5100291;28;20440;-82
2023/02/13 09:18:47;;;;;;;17.03;9.30;;;7.60;99.90;;;;;;5100179;28;20429;-81
2023/02/13 09:21:14;;;;;;;9.23;7.00;;;6.80;99.90;;;;;;5099331;28;20450;-81
2023/02/13 09:23:41;;;;;;;10.73;7.40;;;8.30;99.90;;;;;;5100030;28;20442;-82
2023/02/13 09:26:10;;;;;;;10.77;6.90;;;7.90;99.90;;;;;;5101004;28;20493;-82
2023/02/13 09:28:37;;;;;;;10.50;7.53;;;;;;;;;;5099336;28;20925;-81
2023/02/13 09:31:09;;;;;;;13.00;7.30;;;8.10;99.90;;;;;;5100112;28;20443;-81
2023/02/13 09:33:37;;;;;;;15.40;8.10;;;8.40;99.90;;;;;;5099557;28;20439;-80
2023/02/13 09:36:05;;;;;;;8.00;5.60;;;8.00;99.90;;;;;;5101371;28;20453;-82
2023/02/13 09:38:32;;;;;;;13.07;8.30;;;7.70;99.90;;;;;;5099018;28;20834;-81
2023/02/13 09:41:02;;;;;;;13.27;8.20;;;7.50;99.90;;;;;;5098172;28;21054;-82
2023/02/13 09:43:31;;;;;;;14.47;8.50;;;8.50;99.90;;;;;;5098945;28;20442;-82
2023/02/13 09:46:02;;;;;;;10.83;7.40;;;7.90;99.90;;;;;;5099396;28;20451;-82
2023/02/13 09:48:32;;;;;;;11.17;6.80;;;7.90;1.00;;;;;;5098287;28;20418;-81
2023/02/13 09:51:00;;;;;;;11.40;7.20;;;7.90;99.90;;;;;;5099319;28;20482;-81
2023/02/13 09:53:32;;;;;;;12.90;8.17;;;8.00;99.90;;;;;;5099148;28;20472;-81
2023/02/13 09:56:10;;;;;;;14.03;8.67;;;8.00;99.90;;;;;;5100573;28;20433;-82
2023/02/13 09:58:43;;;;;;;13.40;8.73;;;7.60;1.00;;;;;;5104054;28;20435;-81
2023/02/13 10:01:23;;;;;;;18.43;9.00;;;7.80;1.00;;;;;;5105802;28;20540;-81
2023/02/13 10:04:14;;;;;;;12.90;8.27;;;8.30;1.00;;;;;;5109292;28;20539;-80
2023/02/13 10:06:48;;;;;;;15.47;10.20;;;8.00;1.00;;;;;;5102297;28;20479;-82
2023/02/13 10:09:26;;;;;;;14.60;9.07;;;7.40;1.00;;;;;;5103125;28;20402;-82
2023/02/13 10:12:17;;;;;;;18.13;9.50;;;7.60;1.00;;;;;;5102993;28;20450;-82
2023/02/13 10:14:54;;;;;;;14.17;9.37;;;7.70;1.00;;;;;;5109427;28;20530;-81
2023/02/13 10:17:27;;;;;;;14.53;9.60;;;7.70;1.00;;;;;;5110033;28;20456;-81
2023/02/13 10:20:01;;;;;;;15.03;8.90;;;7.70;1.00;;;;;;5108757;28;20424;-82
2023/02/13 10:22:32;;;;;;;20.17;10.07;;;7.30;1.00;;;;;;5105825;28;20484;-82
2023/02/13 10:25:03;;;;;;;17.90;9.43;;;7.50;1.00;;;;;;5110136;28;20463;-82
2023/02/13 10:27:35;;;;;;;14.20;10.10;;;7.50;1.00;;;;;;5112597;28;20430;-81
2023/02/13 10:30:08;;;;;;;14.13;9.10;;;7.80;1.00;;;;;;5115079;28;20410;-80
2023/02/13 10:32:46;;;;;;;13.63;9.23;;;7.50;1.00;;;;;;5113794;28;20467;-81
2023/02/13 10:35:32;;;;;;;17.93;9.63;;;7.70;1.00;;;;;;5106394;28;20403;-82
2023/02/13 10:38:00;;;;;;;11.30;8.00;;;7.60;1.00;;;;;;5100851;28;20469;-82
2023/02/13 10:40:32;;;;;;;13.77;8.80;;;7.60;1.00;;;;;;5100173;28;20507;-81
2023/02/13 10:43:07;;;;;;;14.23;9.77;;;7.70;1.00;;;;;;5099680;28;20484;-83
2023/02/13 10:45:54;;;;;;;14.70;8.67;;;6.20;1.00;;;;;;5100817;28;20497;-82
2023/02/13 10:48:36;;;;;;;13.93;8.47;;;8.10;1.00;;;;;;5101652;28;20806;-82
2023/02/13 10:51:12;;;;;;;14.23;8.47;;;8.10;1.00;;;;;;5109547;28;20500;-82
2023/02/13 10:53:53;;;;;;;14.20;8.30;;;8.00;1.00;;;;;;5110020;28;20442;-81
2023/02/13 10:56:31;;;;;;;17.07;8.90;;;7.80;1.00;;;;;;5105776;28;20504;-82
2023/02/13 10:59:14;;;;;;;12.23;8.40;;;7.70;1.00;;;;;;5103885;28;20440;-82
2023/02/13 11:01:47;;;;;;;10.40;7.13;;;7.70;1.00;;;;;;5103256;28;20506;-82
2023/02/13 11:04:18;;;;;;;14.80;9.10;;;7.70;1.00;;;;;;5102418;28;20463;-81
2023/02/13 11:06:54;;;;;;;14.37;9.07;;;7.90;1.00;;;;;;5102197;28;20414;-82
2023/02/13 11:09:21;;;;;;;19.80;8.17;;;8.20;1.00;;;;;;5101152;28;20436;-82
2023/02/13 11:11:48;;;;;;;12.43;8.37;;;8.20;1.00;;;;;;5100159;28;20516;-81
2023/02/13 11:14:17;;;;;;;14.43;8.27;;;8.00;1.00;;;;;;5098508;28;20487;-82
2023/02/13 11:16:52;;;;;;;15.27;9.33;;;7.60;1.00;;;;;;5098810;28;20429;-82
2023/02/13 11:19:22;;;;;;;12.83;10.13;;;8.00;1.00;;;;;;5098322;28;20458;-82
2023/02/13 11:21:55;;;;;;;15.97;10.17;;;8.00;1.00;;;;;;5095805;28;20465;-81
2023/02/13 11:24:24;;;;;;;13.07;9.33;;;7.70;1.00;;;;;;5096140;28;20760;-81
2023/02/13 11:26:54;;;;;;;15.53;9.37;;;8.50;1.00;;;;;;5097620;28;20452;-83
2023/02/13 11:29:25;;;;;;;16.23;11.27;;;8.20;1.00;;;;;;5107529;28;20992;-81
2023/02/13 11:32:05;;;;;;;15.13;9.83;;;8.50;1.00;;;;;;5104915;28;20506;-81
2023/02/13 11:34:34;;;;;;;14.27;10.83;;;8.10;99.90;;;;;;5105619;28;20907;-81
2023/02/13 11:37:19;;;;;;;17.50;10.90;;;7.70;99.90;;;;;;5107787;28;20499;-82
2023/02/13 11:39:47;;;;;;;15.40;10.20;;;8.50;99.90;;;;;;5100953;28;20897;-82
2023/02/13 11:42:15;;;;;;;20.53;12.30;;;8.60;99.90;;;;;;5097795;28;20562;-81
2023/02/13 11:44:45;;;;;;;17.00;10.57;;;8.20;99.90;;;;;;5097659;28;20505;-82
2023/02/13 11:47:13;;;;;;;15.63;9.87;;;8.60;99.90;;;;;;5097994;28;20439;-82
2023/02/13 11:49:45;;;;;;;18.57;11.80;;;8.20;99.90;;;;;;5097265;28;20436;-82
2023/02/13 11:52:25;;;;;;;15.57;10.50;;;8.20;99.90;;;;;;5097673;28;20428;-81
2023/02/13 11:54:57;;;;;;;22.00;12.43;;;8.10;99.90;;;;;;5097802;28;20428;-81
2023/02/13 11:57:28;;;;;;;15.07;10.70;;;7.90;99.90;;;;;;5104556;28;20410;-82
2023/02/13 11:59:55;;;;;;;17.83;12.07;;;8.70;99.90;;;;;;5105249;28;20964;-83
2023/02/13 12:02:24;;;;;;;21.00;11.10;;;8.50;1.10;;;;;;5104039;28;20541;-81
2023/02/13 12:04:52;;;;;;;23.23;14.60;;;8.00;99.90;;;;;;5102095;28;20983;-82
2023/02/13 12:07:22;;;;;;;15.83;10.87;;;7.30;1.00;;;;;;5100787;28;20444;-82
2023/02/13 12:09:57;;;;;;;16.80;12.00;;;8.40;23.90;;;;;;5099939;28;20411;-82
2023/02/13 12:12:29;;;;;;;15.20;11.17;;;8.40;99.90;;;;;;5099475;28;20893;-82
2023/02/13 12:14:57;;;;;;;23.37;13.00;;;8.50;99.90;;;;;;5097380;28;20414;-81
2023/02/13 12:17:28;;;;;;;17.43;11.70;;;8.30;33.70;;;;;;5099055;28;20540;-82
2023/02/13 12:19:55;;;;;;;16.80;13.10;;;7.90;1.00;;;;;;5105840;28;20431;-81
2023/02/13 12:22:30;;;;;;;15.70;11.17;;;8.30;71.70;;;;;;5108860;28;20894;-81
2023/02/13 12:25:21;;;;;;;19.00;13.23;;;8.50;99.90;;;;;;5104503;28;20494;-82
2023/02/13 12:27:58;;;;;;;26.30;14.80;;;8.40;50.20;;;;;;5097905;28;20407;-83
2023/02/13 12:30:55;;;;;;;21.17;14.43;;;8.70;8.00;;;;;;5100414;28;20395;-81
2023/02/13 12:33:34;;;;;;;20.73;13.60;;;8.40;1.00;;;;;;5107206;28;20431;-82
2023/02/13 12:36:06;;;;;;;23.33;14.23;;;8.30;1.00;;;;;;5101644;28;20403;-81
2023/02/13 12:38:46;;;;;;;29.17;13.40;;;8.30;1.00;;;;;;5100471;28;20907;-82
2023/02/13 12:41:22;;;;;;;20.20;12.47;;;8.50;1.00;;;;;;5100854;28;20423;-82
2023/02/13 12:44:19;;;;;;;19.10;12.67;;;8.60;1.00;;;;;;5100454;28;20526;-82
2023/02/13 12:46:54;;;;;;;23.50;12.30;;;8.70;1.00;;;;;;5099719;28;20899;-82
2023/02/13 12:49:41;;;;;;;24.43;17.40;;;8.30;1.00;;;;;;5100908;28;20430;-82
2023/02/13 12:52:22;;;;;;;19.00;13.33;;;8.20;1.00;;;;;;5106423;28;20460;-82
2023/02/13 12:55:02;;;;;;;21.70;11.83;;;8.50;1.00;;;;;;5102751;28;20414;-82
2023/02/13 12:57:47;;;;;;;16.73;11.60;;;8.00;1.00;;;;;;5104048;28;20401;-82
2023/02/13 13:00:27;;;;;;;20.73;13.40;;;8.40;1.00;;;;;;5104626;28;20878;-82
2023/02/13 13:03:11;;;;;;;20.20;13.73;;;8.40;1.00;;;;;;5099107;28;20495;-81
2023/02/13 13:06:05;;;;;;;21.00;13.90;;;8.90;1.00;;;;;;5103281;28;20406;-81
2023/02/13 13:08:58;;;;;;;19.53;12.57;;;8.30;99.90;;;;;;5100915;28;20424;-83
2023/02/13 13:11:45;;;;;;;17.60;11.63;;;8.10;1.00;;;;;;5081433;28;20450;-82
2023/02/13 13:14:21;;;;;;;23.03;14.83;;;8.80;1.00;;;;;;5101706;28;20468;-84
2023/02/13 13:16:56;;;;;;;19.70;12.43;;;8.50;1.00;;;;;;5100949;28;20454;-82
2023/02/13 13:19:35;;;;;;;20.40;12.20;;;8.20;1.00;;;;;;5104420;28;20873;-81
2023/02/13 13:22:07;;;;;;;20.63;10.47;;;8.30;99.90;;;;;;5099642;28;21010;-82
2023/02/13 13:24:47;;;;;;;16.23;10.17;;;8.00;1.00;;;;;;5104923;28;20420;-82
2023/02/13 13:27:22;;;;;;;20.10;10.40;;;8.50;1.00;;;;;;5105989;28;20414;-82
2023/02/13 13:29:57;;;;;;;17.10;12.00;;;8.70;99.90;;;;;;5106100;28;20465;-82
2023/02/13 13:32:26;;;;;;;21.27;11.03;;;8.50;1.00;;;;;;5102804;28;20434;-80
2023/02/13 13:34:53;;;;;;;16.73;10.93;;;8.50;1.00;;;;;;5101534;28;20507;-81
2023/02/13 13:37:30;;;;;;;19.73;11.83;;;8.30;1.00;;;;;;5100159;28;20829;-81
2023/02/13 13:40:03;;;;;;;15.80;10.80;;;8.50;1.00;;;;;;5099315;28;20432;-81
2023/02/13 13:42:39;;;;;;;21.77;11.63;;;8.40;1.00;;;;;;5099142;28;20462;-81
2023/02/13 13:45:22;;;;;;;21.93;13.50;;;8.50;1.00;;;;;;5102678;28;20189;-81
2023/02/13 13:48:00;;;;;;;20.83;11.63;;;8.10;1.00;;;;;;5110190;28;20399;-82
2023/02/13 13:50:30;;;;;;;24.27;11.90;;;8.30;1.00;;;;;;5110287;28;20414;-82
2023/02/13 13:53:09;;;;;;;20.37;12.10;;;8.70;1.00;;;;;;5105874;28;21070;-82
2023/02/13 13:56:02;;;;;;;20.80;12.03;;;8.60;1.00;;;;;;5099330;28;20444;-81
2023/02/13 13:58:41;;;;;;;20.77;13.23;;;8.10;1.00;;;;;;5100333;28;20448;-81
2023/02/13 14:01:24;;;;;;;21.17;12.97;;;8.50;1.00;;;;;;5101571;28;20407;-81
2023/02/13 14:03:53;;;;;;;25.27;12.63;;;8.40;1.00;;;;;;5103739;28;21009;-82